Record high temperature 45.5°C Record low temperature -0.3°C Record high gust 87.3 km/h Record high average 77.7 km/h Record daily rain 484.8 mm Record low windchill -5.8°C Record high barometer 1043.6 hPa Record low barometer 978.0 hPa
Daily high pressure 1032.1 mb Daily low pressure 1030.2 mb Daily low windchill -0.3°C Daily high heat index 8.2°C Daily high gust speed 14.8 kmh S Daily high average speed 10.0 kmh SSW
MeteoMurcia.com
Ultima grabación a: 12:00 Data: 18 January 2022, time of next update: 12:05
Tiempo actualClear Temperatura actual8.2°C (46.8°F), Temperatura aparente 6.1°C
Temperatura máxima (desde medianoche)8.2°C at: 11:57 Temperatura mínima (desde medianoche)2.4°C at: 07:35
Velocidad media del viento (diez minutos)5.6 kmh (3.0 kts) Dirección del viento (diez minutos)SW (223°)
Temperatura aparente 6.8°C ráfagas maxima (última hora)11.1 kmh (6.0 kts) at: 11:15
ráfagas maxima (desde medianoche)14.8 kmh (8.0 kts) at: 03:54 Maximo media de un minuto (desde medianoche)10.0 kmh (5.4 kts) at: 03:59
Lluvia (última hora)0.0 mm Lluvia (desde medianoche)0.0 mm (0.00 in.)---
Lluvia Este mes 6.7 mm (0.26 in.) Lluvia Hasta la fecha este año6.7 mm (0.26 in.)
Lluvia máxima por minuto (última hora)0.0 mm/min Lluvia maxima por hora (últimas 6 horas)0.0 mm/hora
Lluvia de ayer 0.0 mm Punto de rocío 1.1°C (Wet Bulb :5.3°C )
Humedad 61 %, Humidex 6.3°C Barómetro corregido a msl1031.8 mb
cambio de presión-0.3 mb (última hora) Tendencia (últimas 1 hora)ESTACIONARIO
cambio de presión (últimas 12 horas)+0.7 mb cambio de presión (últimas 6 horas)+1.6 mb
Current Temp. Interna 19.1°C
Current Hum. Interna 38%


Última imagen cámara web


Weather report/warning/Metars

Murcia / Alcantarilla, Spain (LERI) 37-57N 001-14W 75M
Jan 18, 2022 - 05:30 AM EST / 2022.01.18 1030 UTC
Wind: Variable at 2 MPH (2 KT):0
Visibility: greater than 7 mile(s):0
Temperature: 44 F (7 C)
Dew Point: 32 F (0 C)
Relative Humidity: 60%
Pressure (altimeter): 30.50 in. Hg (1033 hPa)
ob: LERI 181030Z VRB02KT CAVOK 07/00 Q1033 NOSIG
cycle: 10
Station name not available
Jan 18, 2022 - 05:30 AM EST / 2022.01.18 1030 UTC
Wind: from the SSW (200 degrees) at 3 MPH (3 KT) (direction variable):0
Visibility: greater than 7 mile(s):0
Temperature: 50 F (10 C)
Dew Point: 41 F (5 C)
Relative Humidity: 71%
Pressure (altimeter): 30.47 in. Hg (1032 hPa)
ob: LEMI 181030Z 20003KT 170V230 CAVOK 10/05 Q1032
cycle: 10
Alicante / El Altet, Spain (LEAL) 38-17N 000-33W 31M
Jan 18, 2022 - 05:30 AM EST / 2022.01.18 1030 UTC
Wind: from the WSW (250 degrees) at 5 MPH (4 KT) (direction variable):0
Visibility: greater than 7 mile(s):0
Temperature: 53 F (12 C)
Dew Point: 37 F (3 C)
Relative Humidity: 54%
Pressure (altimeter): 30.47 in. Hg (1032 hPa)
ob: LEAL 181030Z 25004KT 200V290 CAVOK 12/03 Q1032 NOSIG
cycle: 10



La informacion se graba a intervalos de 2 minutos, pero hay info grabada cada minuto. Optimizado para 800*600 y Color verdadero. Use el boton de

Use the RECARGA en su navegador para recojer la ulima info.

Clicar aquí para regarga diaria de medias/extremas del mes














Created by "Weather Display" software version 10.37S at this start time/date 19:37:28 16/01/2022

La estación de MeteoMurcia.com, publica sus datos en los siguientes proyectos:

Weather Underground PWS IMURCIAP2 Meteoclimatic www.awekas.at

W3Counter
Web Analytics